createdAt,value
2023-11-14T00:03:39.802Z,15.80
2023-11-14T00:09:44.496Z,10.90
2023-11-14T00:15:49.179Z,10.15
2023-11-14T00:21:54.494Z,7.18
2023-11-14T00:27:57.930Z,16.40
2023-11-14T00:34:01.460Z,19.30
2023-11-14T00:40:07.113Z,20.08
2023-11-14T00:46:13.123Z,14.73
2023-11-14T00:52:17.368Z,18.17
2023-11-14T00:58:22.407Z,17.92
2023-11-14T01:04:25.878Z,19.48
2023-11-14T01:10:29.670Z,14.85
2023-11-14T01:16:34.814Z,21.40
2023-11-14T01:22:38.531Z,20.75
2023-11-14T01:28:43.296Z,16.25
2023-11-14T01:34:48.244Z,17.98
2023-11-14T01:40:53.014Z,17.23
2023-11-14T01:46:57.574Z,15.70
2023-11-14T01:53:03.064Z,19.92
2023-11-14T01:59:07.211Z,13.88
2023-11-14T02:05:11.101Z,22.27
2023-11-14T02:11:16.483Z,16.17
2023-11-14T02:17:20.306Z,21.23
2023-11-14T02:23:25.750Z,21.95
2023-11-14T02:29:31.143Z,16.83
2023-11-14T02:35:34.788Z,21.77
2023-11-14T02:41:38.451Z,17.52
2023-11-14T02:47:43.468Z,17.00
2023-11-14T02:53:48.011Z,18.17
2023-11-14T02:59:51.476Z,16.08
2023-11-14T03:05:56.642Z,19.25
2023-11-14T03:12:01.309Z,16.70
2023-11-14T03:18:11.686Z,10.73
2023-11-14T03:24:18.220Z,17.60
2023-11-14T03:30:24.124Z,19.05
2023-11-14T03:36:28.467Z,17.95
2023-11-14T03:42:34.899Z,16.90
2023-11-14T03:48:39.017Z,21.23
2023-11-14T03:54:44.630Z,16.55
2023-11-14T04:00:50.175Z,22.10
2023-11-14T04:06:53.959Z,17.48
2023-11-14T04:12:58.971Z,23.13
2023-11-14T04:19:04.472Z,19.02
2023-11-14T04:25:09.117Z,18.95
2023-11-14T04:31:13.979Z,16.02
2023-11-14T04:37:19.935Z,17.77
2023-11-14T04:43:24.833Z,21.98
2023-11-14T04:49:29.653Z,23.20
2023-11-14T04:55:36.086Z,17.15
2023-11-14T05:01:40.775Z,15.60
2023-11-14T05:07:49.123Z,14.55
2023-11-14T05:13:54.921Z,18.85
2023-11-14T05:20:00.924Z,22.55
2023-11-14T05:26:05.542Z,16.15
2023-11-14T05:32:12.217Z,16.48
2023-11-14T05:38:19.037Z,13.65
2023-11-14T05:44:24.043Z,16.63
2023-11-14T05:50:29.419Z,18.17
2023-11-14T05:56:33.468Z,20.35
2023-11-14T06:02:37.983Z,16.15
2023-11-14T06:08:43.798Z,10.60
2023-11-14T06:14:47.393Z,10.18
2023-11-14T06:20:53.853Z,12.23
2023-11-14T06:26:58.743Z,16.52
2023-11-14T06:33:02.376Z,8.90
2023-11-14T06:39:06.643Z,11.60
2023-11-14T06:45:12.405Z,17.27
2023-11-14T06:51:15.905Z,19.17
2023-11-14T06:57:19.605Z,18.77
2023-11-14T07:03:24.972Z,12.65
2023-11-14T07:09:28.490Z,8.90
2023-11-14T07:15:32.261Z,12.65
2023-11-14T07:21:37.901Z,11.93
2023-11-14T07:27:42.300Z,15.65
2023-11-14T07:33:46.095Z,11.77
2023-11-14T07:39:51.707Z,10.13
2023-11-14T07:45:56.125Z,11.18
2023-11-14T07:51:59.767Z,12.50
2023-11-14T07:58:04.880Z,13.63
2023-11-14T08:04:10.461Z,11.23
2023-11-14T08:10:14.967Z,15.73
2023-11-14T08:16:20.296Z,15.40
2023-11-14T08:22:24.703Z,6.65
2023-11-14T08:28:28.402Z,9.98
2023-11-14T08:34:33.447Z,10.07
2023-11-14T08:40:36.988Z,7.20
2023-11-14T08:46:40.582Z,7.28
2023-11-14T08:52:45.531Z,7.55
2023-11-14T08:58:49.488Z,9.63
2023-11-14T09:04:53.371Z,10.07
2023-11-14T09:11:00.648Z,3.65
2023-11-14T09:17:05.090Z,5.35
2023-11-14T09:23:11.535Z,5.95
2023-11-14T09:29:17.223Z,6.47
2023-11-14T09:35:20.899Z,8.10
2023-11-14T09:41:26.732Z,9.07
2023-11-14T09:47:33.877Z,7.25
2023-11-14T09:53:38.534Z,8.45
2023-11-14T09:59:44.161Z,5.80
2023-11-14T10:05:49.072Z,10.30
2023-11-14T10:12:12.597Z,12.68
2023-11-14T10:18:31.269Z,10.00
2023-11-14T10:24:36.492Z,14.40
2023-11-14T10:30:54.474Z,14.77
2023-11-14T10:37:30.906Z,10.38
2023-11-14T10:43:36.890Z,11.73
2023-11-14T10:49:48.053Z,11.15
2023-11-14T10:55:53.961Z,14.88
2023-11-14T11:02:02.014Z,5.60
2023-11-14T11:08:10.331Z,4.55
2023-11-14T11:14:17.419Z,8.95
2023-11-14T11:20:26.868Z,8.23
2023-11-14T11:26:31.720Z,10.17
2023-11-14T11:32:37.444Z,6.03
2023-11-14T11:38:54.716Z,5.80
2023-11-14T11:44:58.179Z,5.68
2023-11-14T11:51:21.511Z,4.50
2023-11-14T11:57:26.447Z,4.40
2023-11-14T12:03:30.163Z,6.13
2023-11-14T12:09:33.917Z,2.85
2023-11-14T12:15:38.951Z,2.60
2023-11-14T12:21:43.654Z,4.93
2023-11-14T12:27:51.051Z,3.15
2023-11-14T12:33:58.249Z,3.67
2023-11-14T12:40:06.951Z,7.90
2023-11-14T12:46:10.923Z,3.85
2023-11-14T12:52:18.191Z,6.07
2023-11-14T12:58:21.777Z,4.35
2023-11-14T13:04:25.467Z,7.65
2023-11-14T13:10:31.030Z,6.13
2023-11-14T13:16:36.634Z,7.47
2023-11-14T13:22:41.501Z,6.72
2023-11-14T13:28:46.513Z,6.88
2023-11-14T13:34:52.297Z,6.57
2023-11-14T13:40:56.563Z,8.85
2023-11-14T13:47:01.558Z,9.48
2023-11-14T13:53:06.056Z,9.38
2023-11-14T13:59:09.700Z,7.55
2023-11-14T14:05:14.811Z,8.38
2023-11-14T14:11:18.357Z,6.60
2023-11-14T14:17:22.505Z,7.22
2023-11-14T14:23:27.476Z,5.90
2023-11-14T14:29:31.085Z,5.13
2023-11-14T14:35:35.394Z,4.55
2023-11-14T14:41:41.536Z,5.75
2023-11-14T14:47:46.628Z,5.47
2023-11-14T14:53:50.251Z,9.07
2023-11-14T14:59:55.125Z,3.88
2023-11-14T15:06:01.256Z,4.50
2023-11-14T15:12:05.303Z,2.58
2023-11-14T15:18:11.080Z,5.53
2023-11-14T15:24:14.758Z,1.35
2023-11-14T15:30:18.576Z,4.60
2023-11-14T15:36:23.469Z,3.13
2023-11-14T15:42:26.980Z,2.08
2023-11-14T15:48:30.637Z,4.63
2023-11-14T15:54:36.080Z,1.50
2023-11-14T16:00:39.878Z,3.08
2023-11-14T16:06:43.551Z,2.42
2023-11-14T16:12:48.508Z,3.28
2023-11-14T16:18:52.203Z,4.20
2023-11-14T16:24:55.745Z,6.47
2023-11-14T16:31:02.887Z,3.30
2023-11-14T16:37:06.948Z,2.22
2023-11-14T16:43:10.705Z,4.80
2023-11-14T16:49:15.684Z,5.93
2023-11-14T16:55:19.602Z,3.08
2023-11-14T17:01:24.048Z,5.65
2023-11-14T17:07:29.127Z,3.15
2023-11-14T17:13:32.718Z,3.42
2023-11-14T17:19:36.747Z,4.00
2023-11-14T17:25:41.818Z,4.10
2023-11-14T17:31:45.877Z,4.07
2023-11-14T17:37:49.458Z,2.28
2023-11-14T17:43:56.843Z,3.60
2023-11-14T17:50:01.929Z,4.57
2023-11-14T17:56:08.059Z,2.20
2023-11-14T18:02:13.100Z,6.63
2023-11-14T18:08:17.921Z,4.57
2023-11-14T18:14:22.402Z,5.00
2023-11-14T18:20:27.771Z,2.75
2023-11-14T18:26:32.445Z,3.33
2023-11-14T18:32:38.677Z,2.88
2023-11-14T18:38:45.744Z,3.65
2023-11-14T18:45:01.545Z,4.20
2023-11-14T18:51:13.107Z,2.97
2023-11-14T18:57:18.308Z,2.58
2023-11-14T19:03:22.020Z,6.13
2023-11-14T19:09:26.019Z,2.88
2023-11-14T19:15:31.586Z,2.53
2023-11-14T19:27:44.368Z,3.47
2023-11-14T19:33:49.277Z,4.68
2023-11-14T19:39:54.167Z,3.22
2023-11-14T19:45:58.839Z,2.67
2023-11-14T19:52:04.847Z,2.05
2023-11-14T19:58:08.444Z,3.25
2023-11-14T20:04:12.010Z,3.78
2023-11-14T20:10:16.933Z,3.38
2023-11-14T20:16:20.839Z,6.90
2023-11-14T20:22:24.708Z,7.07
2023-11-14T20:28:30.861Z,4.72
2023-11-14T20:34:34.509Z,8.77
2023-11-14T20:40:38.006Z,7.95
2023-11-14T20:46:43.129Z,9.15
2023-11-14T20:52:47.494Z,7.18
2023-11-14T20:58:51.009Z,3.22
2023-11-14T21:04:56.116Z,6.50
2023-11-14T21:10:59.860Z,3.13
2023-11-14T21:17:03.613Z,2.85
2023-11-14T21:23:08.755Z,3.25
2023-11-14T21:29:12.302Z,7.50
2023-11-14T21:35:16.236Z,3.08
2023-11-14T21:41:22.804Z,5.45
2023-11-14T21:47:28.157Z,8.27
2023-11-14T21:53:32.331Z,6.97
2023-11-14T21:59:37.505Z,5.10
2023-11-14T22:05:41.411Z,6.25
2023-11-14T22:11:44.933Z,10.43
2023-11-14T22:17:49.960Z,2.42
2023-11-14T22:23:53.671Z,5.63
2023-11-14T22:29:58.554Z,3.75
2023-11-14T22:36:03.575Z,3.63
2023-11-14T22:42:07.368Z,3.22
2023-11-14T22:48:11.436Z,4.18
2023-11-14T22:54:16.340Z,5.78
2023-11-14T23:00:36.503Z,4.68
2023-11-14T23:06:41.451Z,4.28
2023-11-14T23:12:46.338Z,11.20
2023-11-14T23:18:50.012Z,7.63
2023-11-14T23:24:54.042Z,6.75
2023-11-14T23:31:00.152Z,8.25
2023-11-14T23:37:05.758Z,10.55
2023-11-14T23:43:09.278Z,8.05
2023-11-14T23:49:14.110Z,8.15
2023-11-14T23:55:18.018Z,5.50
